This is the latest recevied weather packets stored in our database for station/object DB0RES-5. If no packets are shown the sender has not sent any weather packets the latest 10 day(s).
| Time | Temp. | Humidity | Pressure | Rain* | Wind** | Luminosity | Snow |
|---|---|---|---|---|---|---|---|
| 1777797955 | 18.89° C | 74% | 1012.4 hPa | 0 mm | - | - | - |
| 1777797352 | 19.44° C | 72% | 1012.3 hPa | 0 mm | - | - | - |
| 1777796750 | 18.89° C | 73% | 1012.4 hPa | 0 mm | - | - | - |
| 1777796147 | 18.89° C | 73% | 1012.5 hPa | 0 mm | - | - | - |
| 1777795544 | 18.33° C | 74% | 1012.5 hPa | 0 mm | - | - | - |
| 1777794942 | 18.33° C | 75% | 1012.6 hPa | 0 mm | - | - | - |
| 1777793737 | 17.78° C | 76% | 1012.5 hPa | 0 mm | - | - | - |
| 1777793134 | 17.22° C | 77% | 1012.5 hPa | 0 mm | - | - | - |
| 1777792532 | 17.78° C | 76% | 1012.5 hPa | 0 mm | - | - | - |
| 1777791929 | 17.22° C | 78% | 1012.5 hPa | 0 mm | - | - | - |
| 1777791327 | 16.67° C | 79% | 1012.5 hPa | 0 mm | - | - | - |
| 1777790724 | 16.67° C | 81% | 1012.7 hPa | 0 mm | - | - | - |
| 1777790121 | 16.11° C | 84% | 1012.7 hPa | 0 mm | - | - | - |
| 1777789519 | 16.11° C | 85% | 1012.7 hPa | 0 mm | - | - | - |
| 1777788916 | 15.56° C | 86% | 1012.7 hPa | 0 mm | - | - | - |
| 1777788374 | 15° C | 88% | 1012.6 hPa | 0 mm | - | - | - |
| 1777787771 | 14.44° C | 89% | 1012.6 hPa | 0 mm | - | - | - |
| 1777787169 | 14.44° C | 90% | 1012.7 hPa | 0 mm | - | - | - |
| 1777786566 | 14.44° C | 89% | 1012.8 hPa | 0 mm | - | - | - |
| 1777785964 | 14.44° C | 90% | 1012.7 hPa | 0 mm | - | - | - |
| 1777785361 | 14.44° C | 90% | 1012.7 hPa | 0 mm | - | - | - |
| 1777784758 | 13.89° C | 90% | 1012.7 hPa | 0 mm | - | - | - |
| 1777784156 | 13.89° C | 90% | 1012.8 hPa | 0 mm | - | - | - |
| 1777783553 | 13.89° C | 90% | 1012.9 hPa | 0 mm | - | - | - |
| 1777782951 | 13.89° C | 90% | 1012.8 hPa | 0 mm | - | - | - |
* Rain latest hour (hover to see other rain measurements)
** Current wind speed in m/s (hover to see current wind gust speed)